createdAt,value
2019-05-07T00:00:43.824Z,7.92
2019-05-07T00:01:42.407Z,7.86
2019-05-07T00:02:42.793Z,7.82
2019-05-07T00:03:42.341Z,7.79
2019-05-07T00:04:42.919Z,7.74
2019-05-07T00:05:42.886Z,7.71
2019-05-07T00:06:43.463Z,7.69
2019-05-07T00:07:42.566Z,7.66
2019-05-07T00:08:44.673Z,7.66
2019-05-07T00:09:42.991Z,7.67
2019-05-07T00:10:42.594Z,7.70
2019-05-07T00:11:42.688Z,7.71
2019-05-07T00:12:43.103Z,7.71
2019-05-07T00:13:44.359Z,7.71
2019-05-07T00:14:42.952Z,7.71
2019-05-07T00:15:43.107Z,7.71
2019-05-07T00:16:42.391Z,7.70
2019-05-07T00:17:42.897Z,7.69
2019-05-07T00:18:42.941Z,7.63
2019-05-07T00:19:43.191Z,7.60
2019-05-07T00:20:42.473Z,7.58
2019-05-07T00:21:42.416Z,7.55
2019-05-07T00:22:42.048Z,7.57
2019-05-07T00:23:43.289Z,7.57
2019-05-07T00:24:42.718Z,7.54
2019-05-07T00:25:42.326Z,7.55
2019-05-07T00:26:42.972Z,7.54
2019-05-07T00:27:42.673Z,7.55
2019-05-07T00:28:43.167Z,7.54
2019-05-07T00:29:42.948Z,7.52
2019-05-07T00:30:42.562Z,7.54
2019-05-07T00:31:42.231Z,7.52
2019-05-07T00:32:42.451Z,7.57
2019-05-07T00:33:43.296Z,7.57
2019-05-07T00:34:42.446Z,7.58
2019-05-07T00:35:42.877Z,7.62
2019-05-07T00:36:42.149Z,7.63
2019-05-07T00:37:43.162Z,7.63
2019-05-07T00:38:42.753Z,7.60
2019-05-07T00:39:42.392Z,7.62
2019-05-07T00:40:42.543Z,7.62
2019-05-07T00:41:42.691Z,7.58
2019-05-07T00:42:42.172Z,7.60
2019-05-07T00:43:42.902Z,7.60
2019-05-07T00:44:42.221Z,7.58
2019-05-07T00:45:42.205Z,7.54
2019-05-07T00:46:42.719Z,7.52
2019-05-07T00:47:42.587Z,7.48
2019-05-07T00:48:42.349Z,7.47
2019-05-07T00:49:42.578Z,7.42
2019-05-07T00:50:42.109Z,7.42
2019-05-07T00:51:42.444Z,7.36
2019-05-07T00:52:42.952Z,7.33
2019-05-07T00:53:42.365Z,7.30
2019-05-07T00:54:42.241Z,7.27
2019-05-07T00:55:42.306Z,7.21
2019-05-07T00:56:42.915Z,7.19
2019-05-07T00:57:42.888Z,7.15
2019-05-07T00:58:42.809Z,7.12
2019-05-07T00:59:42.946Z,7.11
2019-05-07T01:00:42.172Z,7.11
2019-05-07T01:01:43.247Z,7.11
2019-05-07T01:02:43.090Z,7.12
2019-05-07T01:03:42.404Z,7.11
2019-05-07T01:04:42.300Z,7.12
2019-05-07T01:05:43.247Z,7.11
2019-05-07T01:06:42.349Z,7.11
2019-05-07T01:07:42.036Z,7.08
2019-05-07T01:08:43.060Z,7.08
2019-05-07T01:09:43.055Z,7.05
2019-05-07T01:10:42.061Z,7.07
2019-05-07T01:11:42.866Z,7.05
2019-05-07T01:12:42.355Z,7.05
2019-05-07T01:13:43.162Z,7.05
2019-05-07T01:14:42.074Z,7.04
2019-05-07T01:15:43.039Z,7.05
2019-05-07T01:16:42.102Z,7.04
2019-05-07T01:17:42.549Z,7.04
2019-05-07T01:18:42.062Z,7.01
2019-05-07T01:19:42.345Z,7.00
2019-05-07T01:20:42.296Z,7.00
2019-05-07T01:21:43.224Z,7.00
2019-05-07T01:22:42.419Z,7.00
2019-05-07T01:23:42.782Z,7.00
2019-05-07T01:24:42.918Z,7.00
2019-05-07T01:25:42.995Z,7.01
2019-05-07T01:26:42.585Z,7.01
2019-05-07T01:27:42.722Z,7.01
2019-05-07T01:28:42.123Z,7.00
2019-05-07T01:29:43.050Z,6.99
2019-05-07T01:30:43.217Z,6.99
2019-05-07T01:31:43.091Z,7.00
2019-05-07T01:32:42.527Z,7.00
2019-05-07T01:33:42.385Z,6.97
2019-05-07T01:34:42.958Z,7.00
2019-05-07T01:35:42.336Z,6.97
2019-05-07T01:36:42.710Z,6.97
2019-05-07T01:37:42.200Z,6.99
2019-05-07T01:38:42.668Z,6.97
2019-05-07T01:39:42.168Z,6.99
2019-05-07T01:40:42.779Z,6.96
2019-05-07T01:41:41.958Z,6.96
2019-05-07T01:42:42.374Z,6.96
2019-05-07T01:43:42.925Z,6.93
2019-05-07T01:44:42.036Z,6.90
2019-05-07T01:45:46.412Z,6.82
2019-05-07T01:46:42.285Z,6.81
2019-05-07T01:47:42.505Z,6.79
2019-05-07T01:48:42.982Z,6.78
2019-05-07T01:49:42.233Z,6.72
2019-05-07T01:50:42.913Z,6.69
2019-05-07T01:51:42.258Z,6.68
2019-05-07T01:52:42.733Z,6.65
2019-05-07T01:53:43.009Z,6.63
2019-05-07T01:54:42.570Z,6.60
2019-05-07T01:55:42.836Z,6.60
2019-05-07T01:56:42.779Z,6.60
2019-05-07T01:57:42.145Z,6.58
2019-05-07T01:58:42.502Z,6.61
2019-05-07T01:59:42.729Z,6.61
2019-05-07T02:00:42.378Z,6.61
2019-05-07T02:01:42.879Z,6.60
2019-05-07T02:02:42.555Z,6.60
2019-05-07T02:03:42.019Z,6.58
2019-05-07T02:04:42.731Z,6.57
2019-05-07T02:05:42.408Z,6.58
2019-05-07T02:06:42.826Z,6.58
2019-05-07T02:07:42.788Z,6.60
2019-05-07T02:08:42.327Z,6.58
2019-05-07T02:09:42.473Z,6.58
2019-05-07T02:10:42.750Z,6.60
2019-05-07T02:11:42.243Z,6.57
2019-05-07T02:12:42.550Z,6.61
2019-05-07T02:13:42.049Z,6.61
2019-05-07T02:14:42.236Z,6.60
2019-05-07T02:15:42.716Z,6.61
2019-05-07T02:16:41.877Z,6.61
2019-05-07T02:17:42.850Z,6.60
2019-05-07T02:18:42.430Z,6.60
2019-05-07T02:19:42.518Z,6.60
2019-05-07T02:20:42.591Z,6.61
2019-05-07T02:21:42.344Z,6.64
2019-05-07T02:22:42.689Z,6.60
2019-05-07T02:23:42.560Z,6.61
2019-05-07T02:24:43.249Z,6.61
2019-05-07T02:25:41.972Z,6.61
2019-05-07T02:26:42.539Z,6.61
2019-05-07T02:27:42.080Z,6.60
2019-05-07T02:28:42.572Z,6.63
2019-05-07T02:29:42.929Z,6.58
2019-05-07T02:30:44.107Z,6.63
2019-05-07T02:31:43.792Z,6.61
2019-05-07T02:32:43.337Z,6.63
2019-05-07T02:33:43.365Z,6.64
2019-05-07T02:34:43.770Z,6.69
2019-05-07T02:35:43.561Z,6.71
2019-05-07T02:36:43.362Z,6.72
2019-05-07T02:37:48.388Z,6.73
2019-05-07T02:38:44.236Z,6.75
2019-05-07T02:39:44.004Z,6.79
2019-05-07T02:40:43.037Z,6.82
2019-05-07T02:41:43.743Z,6.83
2019-05-07T02:42:44.065Z,6.83
2019-05-07T02:43:43.011Z,6.86
2019-05-07T02:44:43.611Z,6.81
2019-05-07T02:45:43.765Z,6.76
2019-05-07T02:46:43.129Z,6.76
2019-05-07T02:47:43.522Z,6.73
2019-05-07T02:48:42.852Z,6.69
2019-05-07T02:49:43.598Z,6.69
2019-05-07T02:50:43.488Z,6.63
2019-05-07T02:51:43.444Z,6.57
2019-05-07T02:52:43.382Z,6.54
2019-05-07T02:53:43.008Z,6.53
2019-05-07T02:54:43.541Z,6.50
2019-05-07T02:55:43.297Z,6.46
2019-05-07T02:56:42.981Z,6.43
2019-05-07T02:57:43.192Z,6.40
2019-05-07T02:58:43.187Z,6.39
2019-05-07T02:59:40.354Z,6.35
2019-05-07T03:00:43.101Z,6.35
2019-05-07T03:01:43.036Z,6.35
2019-05-07T03:02:43.557Z,6.36
2019-05-07T03:03:40.312Z,6.38
2019-05-07T03:04:43.312Z,6.40
2019-05-07T03:05:42.855Z,6.45
2019-05-07T03:06:40.272Z,6.45
2019-05-07T03:07:42.781Z,6.45
2019-05-07T03:08:40.258Z,6.45
2019-05-07T03:09:43.186Z,6.45
2019-05-07T03:10:43.151Z,6.42
2019-05-07T03:11:43.249Z,6.42
2019-05-07T03:12:42.819Z,6.42
2019-05-07T03:13:42.977Z,6.43
2019-05-07T03:14:40.196Z,6.42
2019-05-07T03:15:43.199Z,6.42
2019-05-07T03:16:47.456Z,6.40
2019-05-07T03:17:42.932Z,6.40
2019-05-07T03:18:43.515Z,6.38
2019-05-07T03:19:42.782Z,6.38
2019-05-07T03:20:42.540Z,6.39
2019-05-07T03:21:40.113Z,6.36
2019-05-07T03:22:42.640Z,6.35
2019-05-07T03:23:42.834Z,6.36
2019-05-07T03:24:43.150Z,6.35
2019-05-07T03:25:43.028Z,6.35
2019-05-07T03:26:43.344Z,6.35
2019-05-07T03:27:42.921Z,6.33
2019-05-07T03:28:42.301Z,6.35
2019-05-07T03:29:40.028Z,6.35
2019-05-07T03:30:44.955Z,6.35
2019-05-07T03:31:46.102Z,6.36
2019-05-07T03:32:46.851Z,6.36
2019-05-07T03:33:46.564Z,6.36
2019-05-07T03:34:46.229Z,6.36
2019-05-07T03:35:45.827Z,6.40
2019-05-07T03:36:46.776Z,6.40
2019-05-07T03:37:43.419Z,6.42
2019-05-07T03:38:39.955Z,6.40
2019-05-07T03:39:42.952Z,6.43
2019-05-07T03:40:39.917Z,6.42
2019-05-07T03:41:43.080Z,6.45
2019-05-07T03:42:39.883Z,6.50
2019-05-07T03:43:39.874Z,6.51
2019-05-07T03:44:39.899Z,6.55
2019-05-07T03:45:42.956Z,6.58
2019-05-07T03:46:54.517Z,6.60
2019-05-07T03:47:43.636Z,6.61
2019-05-07T03:48:39.822Z,6.61
2019-05-07T03:49:42.796Z,6.61
2019-05-07T03:50:42.852Z,6.64
2019-05-07T03:51:39.797Z,6.64
2019-05-07T03:52:42.627Z,6.65
2019-05-07T03:53:43.163Z,6.65
2019-05-07T03:54:42.848Z,6.71
2019-05-07T03:55:39.746Z,6.73
2019-05-07T03:56:39.750Z,6.76
2019-05-07T03:57:39.726Z,6.78
2019-05-07T03:58:39.726Z,6.79
2019-05-07T03:59:39.734Z,6.78
2019-05-07T04:00:39.694Z,6.79
2019-05-07T04:01:42.902Z,6.78
2019-05-07T04:02:39.696Z,6.79
2019-05-07T04:03:39.664Z,6.81
2019-05-07T04:04:39.664Z,6.79
2019-05-07T04:05:39.653Z,6.79
2019-05-07T04:06:43.140Z,6.79
2019-05-07T04:07:39.628Z,6.76
2019-05-07T04:08:42.829Z,6.76
2019-05-07T04:09:39.610Z,6.78
2019-05-07T04:10:39.606Z,6.78
2019-05-07T04:11:39.592Z,6.78
2019-05-07T04:12:39.581Z,6.81
2019-05-07T04:13:39.606Z,6.81
2019-05-07T04:14:39.548Z,6.83
2019-05-07T04:15:39.551Z,6.83
2019-05-07T04:16:39.566Z,6.87
2019-05-07T04:17:39.517Z,6.87
2019-05-07T04:18:39.528Z,6.90
2019-05-07T04:19:39.496Z,6.93
2019-05-07T04:20:43.160Z,6.94
2019-05-07T04:21:39.466Z,6.97
2019-05-07T04:22:42.849Z,7.01
2019-05-07T04:23:39.470Z,7.04
2019-05-07T04:24:42.593Z,7.07
2019-05-07T04:25:39.438Z,7.09
2019-05-07T04:26:39.422Z,7.11
2019-05-07T04:27:43.380Z,7.08
2019-05-07T04:28:43.391Z,7.05
2019-05-07T04:29:39.382Z,7.04
2019-05-07T04:30:39.384Z,7.05
2019-05-07T04:31:39.388Z,7.07
2019-05-07T04:32:39.361Z,7.05
2019-05-07T04:33:39.348Z,7.08
2019-05-07T04:34:39.368Z,7.12
2019-05-07T04:35:39.318Z,7.14
2019-05-07T04:36:39.309Z,7.15
2019-05-07T04:37:39.317Z,7.18
2019-05-07T04:38:39.287Z,7.23
2019-05-07T04:39:39.286Z,7.26
2019-05-07T04:40:39.266Z,7.26
2019-05-07T04:41:39.267Z,7.29
2019-05-07T04:42:42.617Z,7.30
2019-05-07T04:43:39.246Z,7.32
2019-05-07T04:44:39.245Z,7.34
2019-05-07T04:45:39.215Z,7.34
2019-05-07T04:46:43.720Z,7.34
2019-05-07T04:47:44.205Z,7.36
2019-05-07T04:48:43.544Z,7.36
2019-05-07T04:49:39.183Z,7.36
2019-05-07T04:50:43.614Z,7.37
2019-05-07T04:51:43.116Z,7.37
2019-05-07T04:52:39.140Z,7.37
2019-05-07T04:53:39.143Z,7.34
2019-05-07T04:54:39.132Z,7.36
2019-05-07T04:55:39.110Z,7.37
2019-05-07T04:56:39.099Z,7.36
2019-05-07T04:57:39.100Z,7.37
2019-05-07T04:58:39.079Z,7.41
2019-05-07T04:59:39.087Z,7.41
2019-05-07T05:00:39.055Z,7.42
2019-05-07T05:01:39.038Z,7.45
2019-05-07T05:02:39.060Z,7.47
2019-05-07T05:03:39.502Z,7.48
2019-05-07T05:04:39.017Z,7.52
2019-05-07T05:05:39.015Z,7.58
2019-05-07T05:06:38.998Z,7.60
2019-05-07T05:07:38.974Z,8.22
2019-05-07T05:08:38.975Z,9.13
2019-05-07T05:09:38.954Z,9.56
2019-05-07T05:10:38.945Z,9.96
2019-05-07T05:11:38.949Z,10.43
2019-05-07T05:12:38.931Z,10.76
2019-05-07T05:13:38.912Z,10.55
2019-05-07T05:14:38.903Z,10.91
2019-05-07T05:15:38.891Z,11.17
2019-05-07T05:16:38.891Z,11.26
2019-05-07T05:17:49.608Z,11.24
2019-05-07T05:18:41.927Z,11.28
2019-05-07T05:19:38.849Z,11.12
2019-05-07T05:20:38.840Z,10.93
2019-05-07T05:21:38.829Z,10.58
2019-05-07T05:22:38.829Z,10.55
2019-05-07T05:23:38.818Z,10.60
2019-05-07T05:24:38.801Z,10.54
2019-05-07T05:25:38.787Z,10.36
2019-05-07T05:26:38.776Z,10.24
2019-05-07T05:27:38.785Z,10.11
2019-05-07T05:28:38.755Z,9.95
2019-05-07T05:29:38.983Z,9.81
2019-05-07T05:30:38.735Z,9.71
2019-05-07T05:31:38.715Z,9.63
2019-05-07T05:32:38.715Z,9.55
2019-05-07T05:33:38.712Z,9.50
2019-05-07T05:34:38.693Z,9.45
2019-05-07T05:35:38.673Z,9.50
2019-05-07T05:36:38.665Z,9.63
2019-05-07T05:37:38.659Z,9.80
2019-05-07T05:38:38.705Z,10.22
2019-05-07T05:39:38.640Z,10.57
2019-05-07T05:40:38.622Z,11.24
2019-05-07T05:41:38.640Z,12.01
2019-05-07T05:42:39.241Z,12.51
2019-05-07T05:43:38.593Z,12.81
2019-05-07T05:44:38.581Z,12.96
2019-05-07T05:45:38.580Z,12.94
2019-05-07T05:46:38.587Z,12.70
2019-05-07T05:47:38.548Z,12.56
2019-05-07T05:48:38.538Z,12.26
2019-05-07T05:49:38.538Z,12.04
2019-05-07T05:50:38.517Z,11.96
2019-05-07T05:51:38.528Z,11.85
2019-05-07T05:52:38.513Z,11.77
2019-05-07T05:53:38.486Z,11.66
2019-05-07T05:54:38.476Z,11.63
2019-05-07T05:55:38.463Z,11.63
2019-05-07T05:56:38.459Z,11.98
2019-05-07T05:57:38.448Z,12.22
2019-05-07T05:58:38.443Z,12.29
2019-05-07T05:59:49.201Z,12.91
2019-05-07T06:00:39.404Z,13.61
2019-05-07T06:01:38.397Z,14.60
2019-05-07T06:02:38.393Z,15.04
2019-05-07T06:03:38.393Z,14.98
2019-05-07T06:04:38.377Z,14.54
2019-05-07T06:05:38.353Z,13.79
2019-05-07T06:06:38.353Z,13.19
2019-05-07T06:07:38.334Z,12.59
2019-05-07T06:08:38.331Z,12.21
2019-05-07T06:09:38.314Z,11.85
2019-05-07T06:10:38.300Z,11.60
2019-05-07T06:11:38.302Z,11.45
2019-05-07T06:12:38.309Z,11.27
2019-05-07T06:13:38.271Z,11.12
2019-05-07T06:14:39.600Z,11.02
2019-05-07T06:15:38.251Z,10.93
2019-05-07T06:16:38.294Z,10.88
2019-05-07T06:17:38.240Z,10.81
2019-05-07T06:18:38.240Z,10.75
2019-05-07T06:19:38.208Z,10.68
2019-05-07T06:20:38.207Z,10.62
2019-05-07T06:21:38.232Z,10.57
2019-05-07T06:22:38.176Z,10.49
2019-05-07T06:23:38.171Z,10.44
2019-05-07T06:24:38.155Z,10.38
2019-05-07T06:25:38.136Z,10.32
2019-05-07T06:26:38.143Z,10.25
2019-05-07T06:27:38.124Z,10.17
2019-05-07T06:28:38.114Z,10.07
2019-05-07T06:29:38.105Z,9.98
2019-05-07T06:30:38.093Z,9.91
2019-05-07T06:31:38.092Z,9.86
2019-05-07T06:32:38.062Z,9.80
2019-05-07T06:33:38.054Z,9.78
2019-05-07T06:34:38.042Z,9.75
2019-05-07T06:35:38.062Z,9.74
2019-05-07T06:36:38.033Z,9.73
2019-05-07T06:37:38.021Z,9.65
2019-05-07T06:38:38.022Z,9.59
2019-05-07T06:39:37.990Z,9.58
2019-05-07T06:40:37.992Z,9.56
2019-05-07T06:41:37.981Z,9.55
2019-05-07T06:42:37.962Z,9.60
2019-05-07T06:43:37.958Z,9.62
2019-05-07T06:44:37.939Z,9.65
2019-05-07T06:45:37.926Z,9.70
2019-05-07T06:46:38.853Z,9.71
2019-05-07T06:47:37.907Z,9.77
2019-05-07T06:48:42.819Z,9.80
2019-05-07T06:49:38.878Z,9.85
2019-05-07T06:50:37.894Z,9.93
2019-05-07T06:51:37.863Z,9.96
2019-05-07T06:52:37.855Z,9.98
2019-05-07T06:53:37.836Z,10.04
2019-05-07T06:54:37.837Z,10.09
2019-05-07T06:55:37.843Z,10.07
2019-05-07T06:56:37.811Z,10.14
2019-05-07T06:57:37.814Z,10.24
2019-05-07T06:58:37.807Z,10.24
2019-05-07T06:59:37.795Z,10.26
2019-05-07T07:00:37.761Z,10.31
2019-05-07T07:01:37.762Z,10.36
2019-05-07T07:02:37.751Z,10.35
2019-05-07T07:03:37.734Z,10.31
2019-05-07T07:04:37.731Z,10.32
2019-05-07T07:05:37.729Z,10.29
2019-05-07T07:06:37.709Z,10.32
2019-05-07T07:07:37.775Z,10.36
2019-05-07T07:08:37.679Z,10.42
2019-05-07T07:09:37.678Z,10.46
2019-05-07T07:10:37.666Z,10.49
2019-05-07T07:11:37.711Z,10.49
2019-05-07T07:12:37.660Z,10.51
2019-05-07T07:13:37.627Z,10.46
2019-05-07T07:14:37.637Z,10.54
2019-05-07T07:15:37.612Z,10.58
2019-05-07T07:16:37.621Z,10.54
2019-05-07T07:17:37.593Z,10.55
2019-05-07T07:18:48.422Z,10.57
2019-05-07T07:19:38.597Z,10.58
2019-05-07T07:20:37.588Z,10.55
2019-05-07T07:21:37.543Z,10.58
2019-05-07T07:22:37.533Z,10.65
2019-05-07T07:23:37.522Z,10.63
2019-05-07T07:24:37.516Z,10.65
2019-05-07T07:25:37.526Z,10.60
2019-05-07T07:26:37.491Z,10.58
2019-05-07T07:27:37.484Z,10.68
2019-05-07T07:28:37.471Z,10.68
2019-05-07T07:29:37.461Z,10.70
2019-05-07T07:30:37.482Z,10.72
2019-05-07T07:31:37.444Z,10.76
2019-05-07T07:32:37.433Z,10.75
2019-05-07T07:33:37.447Z,10.68
2019-05-07T07:34:37.412Z,10.62
2019-05-07T07:35:37.411Z,10.54
2019-05-07T07:36:38.217Z,10.47
2019-05-07T07:37:37.378Z,10.52
2019-05-07T07:38:37.376Z,10.55
2019-05-07T07:39:37.346Z,10.60
2019-05-07T07:40:37.346Z,10.58
2019-05-07T07:41:37.356Z,10.70
2019-05-07T07:42:37.325Z,10.76
2019-05-07T07:43:37.315Z,10.87
2019-05-07T07:44:37.316Z,10.99
2019-05-07T07:45:37.314Z,11.06
2019-05-07T07:46:37.304Z,11.12
2019-05-07T07:47:37.274Z,11.13
2019-05-07T07:48:37.295Z,11.16
2019-05-07T07:49:37.254Z,11.20
2019-05-07T07:50:37.454Z,11.31
2019-05-07T07:51:41.774Z,11.35
2019-05-07T07:52:38.965Z,11.44
2019-05-07T07:53:37.213Z,11.56
2019-05-07T07:54:37.203Z,11.62
2019-05-07T07:55:37.192Z,11.62
2019-05-07T07:56:49.142Z,11.60
2019-05-07T07:57:38.164Z,11.48
2019-05-07T07:58:37.169Z,11.53
2019-05-07T07:59:37.151Z,11.60
2019-05-07T08:00:37.150Z,11.62
2019-05-07T08:01:37.139Z,11.59
2019-05-07T08:02:37.125Z,11.62
2019-05-07T08:03:37.107Z,11.66
2019-05-07T08:04:37.111Z,11.74
2019-05-07T08:05:37.076Z,11.82
2019-05-07T08:06:37.085Z,11.78
2019-05-07T08:07:37.065Z,11.77
2019-05-07T08:08:37.051Z,11.77
2019-05-07T08:09:37.035Z,11.75
2019-05-07T08:10:37.037Z,11.79
2019-05-07T08:11:37.015Z,11.82
2019-05-07T08:12:37.006Z,11.98
2019-05-07T08:13:37.002Z,12.01
2019-05-07T08:14:36.985Z,12.18
2019-05-07T08:15:36.972Z,12.36
2019-05-07T08:16:36.965Z,12.49
2019-05-07T08:17:36.971Z,12.62
2019-05-07T08:18:36.957Z,12.99
2019-05-07T08:19:36.951Z,13.24
2019-05-07T08:20:36.920Z,13.01
2019-05-07T08:21:36.910Z,13.01
2019-05-07T08:22:36.924Z,13.38
2019-05-07T08:23:36.890Z,13.54
2019-05-07T08:24:36.869Z,13.41
2019-05-07T08:25:36.868Z,13.32
2019-05-07T08:26:36.849Z,13.44
2019-05-07T08:27:36.868Z,13.73
2019-05-07T08:28:36.829Z,13.93
2019-05-07T08:29:36.825Z,14.09
2019-05-07T08:30:36.815Z,14.57
2019-05-07T08:31:36.801Z,14.49
2019-05-07T08:32:36.788Z,14.26
2019-05-07T08:33:36.786Z,14.11
2019-05-07T08:34:36.787Z,13.93
2019-05-07T08:35:36.756Z,13.48
2019-05-07T08:36:36.756Z,13.22
2019-05-07T08:37:36.735Z,13.22
2019-05-07T08:38:37.343Z,13.16
2019-05-07T08:39:36.725Z,13.13
2019-05-07T08:40:36.728Z,13.12
2019-05-07T08:41:36.692Z,13.06
2019-05-07T08:42:36.684Z,13.29
2019-05-07T08:43:36.673Z,15.92
2019-05-07T08:44:36.680Z,17.84
2019-05-07T08:45:36.835Z,18.75
2019-05-07T08:46:36.657Z,19.38
2019-05-07T08:47:36.621Z,19.16
2019-05-07T08:48:36.631Z,17.96
2019-05-07T08:49:39.846Z,18.20
2019-05-07T08:50:36.599Z,18.59
2019-05-07T08:51:36.590Z,18.31
2019-05-07T08:52:36.569Z,17.86
2019-05-07T08:53:36.579Z,17.66
2019-05-07T08:54:36.549Z,17.68
2019-05-07T08:55:36.549Z,17.27
2019-05-07T08:56:36.528Z,18.23
2019-05-07T08:57:36.519Z,19.12
2019-05-07T08:58:36.518Z,19.79
2019-05-07T08:59:36.507Z,20.26
2019-05-07T09:00:36.567Z,20.78
2019-05-07T09:01:36.476Z,20.87
2019-05-07T09:02:36.466Z,20.79
2019-05-07T09:03:36.467Z,20.81
2019-05-07T09:04:36.466Z,20.20
2019-05-07T09:05:36.438Z,19.25
2019-05-07T09:06:36.416Z,19.30
2019-05-07T09:07:36.414Z,19.23
2019-05-07T09:08:36.399Z,19.87
2019-05-07T09:09:36.408Z,20.33
2019-05-07T09:10:36.387Z,20.63
2019-05-07T09:11:36.366Z,20.33
2019-05-07T09:12:36.354Z,19.87
2019-05-07T09:13:36.347Z,19.02
2019-05-07T09:14:36.353Z,18.17
2019-05-07T09:15:36.334Z,17.63
2019-05-07T09:16:36.323Z,17.25
2019-05-07T09:17:36.303Z,16.90
2019-05-07T09:18:36.303Z,16.62
2019-05-07T09:19:47.280Z,16.25
2019-05-07T09:20:37.302Z,16.03
2019-05-07T09:21:36.285Z,15.74
2019-05-07T09:22:36.261Z,15.55
2019-05-07T09:23:36.241Z,15.11
2019-05-07T09:24:36.231Z,14.61
2019-05-07T09:25:36.255Z,14.19
2019-05-07T09:26:36.214Z,13.94
2019-05-07T09:27:36.211Z,14.01
2019-05-07T09:28:36.190Z,14.11
2019-05-07T09:29:36.238Z,14.11
2019-05-07T09:30:36.186Z,14.19
2019-05-07T09:31:36.162Z,14.34
2019-05-07T09:32:36.149Z,14.30
2019-05-07T09:33:36.140Z,14.24
2019-05-07T09:34:36.128Z,14.12
2019-05-07T09:35:36.138Z,13.98
2019-05-07T09:36:36.130Z,13.87
2019-05-07T09:37:36.118Z,13.86
2019-05-07T09:38:36.096Z,13.79
2019-05-07T09:39:36.087Z,13.62
2019-05-07T09:40:36.066Z,13.62
2019-05-07T09:41:36.105Z,13.55
2019-05-07T09:42:36.056Z,13.50
2019-05-07T09:43:36.045Z,13.32
2019-05-07T09:44:36.023Z,13.21
2019-05-07T09:45:36.026Z,13.27
2019-05-07T09:46:36.019Z,13.27
2019-05-07T09:47:35.983Z,13.16
2019-05-07T09:48:36.060Z,13.28
2019-05-07T09:49:35.963Z,13.54
2019-05-07T09:50:35.955Z,13.63
2019-05-07T09:51:35.952Z,13.59
2019-05-07T09:52:35.932Z,13.61
2019-05-07T09:53:35.952Z,13.73
2019-05-07T09:54:35.911Z,13.80
2019-05-07T09:55:35.900Z,13.75
2019-05-07T09:56:35.912Z,13.69
2019-05-07T09:57:35.881Z,13.65
2019-05-07T09:58:39.045Z,13.66
2019-05-07T09:59:35.877Z,13.63
2019-05-07T10:00:35.840Z,13.63
2019-05-07T10:01:35.849Z,13.46
2019-05-07T10:02:35.839Z,13.35
2019-05-07T10:03:35.873Z,13.63
2019-05-07T10:04:35.817Z,13.99
2019-05-07T10:05:35.817Z,14.31
2019-05-07T10:06:35.777Z,14.57
2019-05-07T10:07:35.778Z,14.61
2019-05-07T10:08:35.766Z,14.44
2019-05-07T10:09:35.879Z,14.42
2019-05-07T10:10:35.769Z,14.49
2019-05-07T10:11:35.727Z,14.61
2019-05-07T10:12:36.431Z,14.57
2019-05-07T10:13:35.706Z,14.34
2019-05-07T10:14:35.774Z,14.29
2019-05-07T10:15:35.712Z,14.23
2019-05-07T10:16:35.693Z,14.19
2019-05-07T10:17:35.664Z,14.35
2019-05-07T10:18:35.663Z,14.56
2019-05-07T10:19:35.664Z,14.66
2019-05-07T10:20:35.640Z,14.69
2019-05-07T10:21:35.621Z,14.56
2019-05-07T10:22:35.641Z,14.46
2019-05-07T10:23:35.602Z,14.52
2019-05-07T10:24:35.592Z,14.53
2019-05-07T10:25:35.601Z,14.60
2019-05-07T10:26:35.569Z,14.64
2019-05-07T10:27:35.589Z,14.75
2019-05-07T10:28:35.539Z,14.97
2019-05-07T10:29:35.537Z,15.13
2019-05-07T10:30:35.533Z,15.16
2019-05-07T10:31:35.518Z,15.15
2019-05-07T10:32:35.498Z,15.11
2019-05-07T10:33:35.507Z,14.97
2019-05-07T10:34:35.479Z,14.66
2019-05-07T10:35:35.478Z,14.41
2019-05-07T10:36:35.470Z,14.34
2019-05-07T10:37:35.446Z,14.29
2019-05-07T10:38:35.435Z,14.13
2019-05-07T10:39:35.418Z,13.93
2019-05-07T10:40:35.425Z,13.79
2019-05-07T10:41:35.404Z,13.71
2019-05-07T10:42:35.394Z,13.68
2019-05-07T10:43:35.385Z,13.66
2019-05-07T10:44:35.376Z,13.71
2019-05-07T10:45:35.381Z,13.53
2019-05-07T10:46:35.344Z,13.43
2019-05-07T10:47:35.332Z,13.43
2019-05-07T10:48:35.354Z,13.55
2019-05-07T10:49:35.323Z,13.65
2019-05-07T10:50:39.176Z,13.76
2019-05-07T10:51:35.291Z,13.91
2019-05-07T10:52:35.281Z,14.01
2019-05-07T10:53:35.271Z,14.01
2019-05-07T10:54:35.261Z,13.83
2019-05-07T10:55:35.268Z,13.73
2019-05-07T10:56:35.239Z,13.83
2019-05-07T10:57:35.249Z,13.98
2019-05-07T10:58:35.219Z,14.02
2019-05-07T10:59:35.222Z,14.01
2019-05-07T11:00:35.209Z,13.96
2019-05-07T11:01:35.194Z,13.96
2019-05-07T11:02:35.177Z,13.81
2019-05-07T11:03:35.197Z,13.80
2019-05-07T11:04:42.633Z,13.86
2019-05-07T11:05:36.146Z,13.99
2019-05-07T11:06:35.196Z,14.02
2019-05-07T11:07:35.136Z,14.12
2019-05-07T11:08:35.106Z,14.11
2019-05-07T11:09:35.096Z,14.06
2019-05-07T11:10:35.088Z,14.01
2019-05-07T11:11:35.074Z,13.88
2019-05-07T11:12:35.157Z,13.71
2019-05-07T11:13:35.054Z,13.61
2019-05-07T11:14:35.043Z,13.57
2019-05-07T11:15:35.032Z,13.53
2019-05-07T11:16:35.044Z,13.44
2019-05-07T11:17:35.015Z,13.39
2019-05-07T11:18:35.008Z,13.41
2019-05-07T11:19:34.991Z,13.41
2019-05-07T11:20:46.553Z,13.32
2019-05-07T11:21:36.038Z,13.32
2019-05-07T11:22:34.962Z,13.35
2019-05-07T11:23:34.947Z,13.22
2019-05-07T11:24:34.940Z,12.79
2019-05-07T11:25:34.930Z,12.38
2019-05-07T11:26:34.921Z,11.88
2019-05-07T11:27:34.910Z,11.51
2019-05-07T11:28:34.976Z,11.23
2019-05-07T11:29:36.632Z,11.08
2019-05-07T11:30:34.897Z,10.90
2019-05-07T11:31:34.866Z,10.73
2019-05-07T11:32:34.857Z,10.65
2019-05-07T11:33:34.865Z,10.55
2019-05-07T11:34:34.827Z,10.47
2019-05-07T11:35:34.834Z,10.26
2019-05-07T11:36:34.815Z,9.96
2019-05-07T11:37:34.814Z,9.86
2019-05-07T11:38:34.805Z,9.71
2019-05-07T11:39:34.787Z,9.53
2019-05-07T11:40:35.065Z,9.34
2019-05-07T11:41:34.766Z,9.20
2019-05-07T11:42:34.755Z,9.20
2019-05-07T11:43:34.733Z,9.20
2019-05-07T11:44:34.731Z,9.22
2019-05-07T11:45:34.733Z,9.17
2019-05-07T11:46:34.725Z,9.17
2019-05-07T11:47:34.696Z,9.23
2019-05-07T11:48:36.398Z,9.23
2019-05-07T11:49:34.681Z,9.26
2019-05-07T11:50:34.669Z,9.16
2019-05-07T11:51:34.649Z,9.12
2019-05-07T11:52:35.824Z,9.16
2019-05-07T11:53:34.631Z,9.30
2019-05-07T11:54:34.629Z,9.48
2019-05-07T11:55:34.624Z,9.59
2019-05-07T11:56:34.607Z,9.71
2019-05-07T11:57:34.579Z,9.85
2019-05-07T11:58:34.586Z,9.95
2019-05-07T11:59:34.586Z,10.06
2019-05-07T12:00:34.558Z,10.14
2019-05-07T12:01:43.974Z,10.18
2019-05-07T12:02:35.525Z,10.26
2019-05-07T12:03:34.537Z,10.39
2019-05-07T12:04:34.514Z,10.47
2019-05-07T12:05:34.495Z,10.51
2019-05-07T12:06:34.509Z,10.58
2019-05-07T12:07:34.516Z,10.69
2019-05-07T12:08:43.053Z,10.76
2019-05-07T12:09:35.462Z,10.83
2019-05-07T12:10:34.491Z,10.88
2019-05-07T12:11:34.430Z,10.95
2019-05-07T12:12:34.422Z,11.01
2019-05-07T12:13:34.412Z,11.03
2019-05-07T12:14:35.059Z,11.08
2019-05-07T12:15:34.402Z,11.12
2019-05-07T12:16:34.384Z,11.17
2019-05-07T12:17:34.370Z,11.16
2019-05-07T12:18:34.367Z,11.17
2019-05-07T12:19:34.346Z,11.20
2019-05-07T12:20:35.020Z,11.21
2019-05-07T12:21:34.337Z,11.23
2019-05-07T12:22:34.323Z,11.21
2019-05-07T12:23:34.336Z,11.24
2019-05-07T12:24:34.298Z,11.24
2019-05-07T12:25:34.308Z,11.26
2019-05-07T12:26:34.275Z,11.30
2019-05-07T12:27:34.266Z,11.31
2019-05-07T12:28:34.256Z,11.36
2019-05-07T12:29:34.255Z,11.36
2019-05-07T12:30:34.253Z,11.38
2019-05-07T12:31:34.233Z,11.39
2019-05-07T12:32:34.212Z,11.46
2019-05-07T12:33:34.210Z,11.53
2019-05-07T12:34:34.203Z,11.60
2019-05-07T12:35:34.191Z,11.66
2019-05-07T12:36:34.174Z,11.74
2019-05-07T12:37:34.170Z,11.81
2019-05-07T12:38:34.150Z,11.82
2019-05-07T12:39:34.139Z,11.87
2019-05-07T12:40:35.578Z,11.88
2019-05-07T12:41:34.483Z,11.85
2019-05-07T12:42:34.118Z,11.85
2019-05-07T12:43:34.097Z,11.90
2019-05-07T12:44:34.088Z,11.93
2019-05-07T12:45:34.079Z,11.94
2019-05-07T12:46:34.101Z,11.98
2019-05-07T12:47:34.047Z,11.98
2019-05-07T12:48:34.036Z,12.00
2019-05-07T12:49:34.026Z,12.01
2019-05-07T12:50:34.025Z,12.04
2019-05-07T12:51:37.388Z,12.08
2019-05-07T12:52:33.994Z,12.11
2019-05-07T12:53:33.995Z,12.15
2019-05-07T12:54:36.637Z,12.19
2019-05-07T12:55:33.995Z,12.22
2019-05-07T12:56:33.985Z,12.25
2019-05-07T12:57:33.955Z,12.22
2019-05-07T12:58:33.941Z,12.19
2019-05-07T12:59:33.944Z,12.08
2019-05-07T13:00:33.931Z,12.03
2019-05-07T13:01:33.904Z,12.01
2019-05-07T13:02:40.621Z,12.00
2019-05-07T13:03:34.884Z,12.01
2019-05-07T13:04:33.891Z,12.05